Alpharetta, Georgia
Current Conditions -  °F | °C
As of 11:53 AM on Wednesday 26 Nov 2014 (Local Time) from KPDK Reporting Station
Clear Clear  
Wind Chill: 51°   Ceiling: Unl
Heat Index: 51°   Visibility: 10mi
Dew Point: 27°   Wind: 14mph
Humidity: 39%   Direction: 270°W
Pressure: 30.09"   Gusts: 18mph
Location:  34.08°N, 84.29°W
Report Text: KPDK 261653Z 27012G16KT 10SM CLR 11/M03 A3009 RMK AO2 SLP193 T01061028
Loading
Personal Weather Stations






























Interactive Weather Map New forecast layout! Learn more

10-Day Weather Forecast

Advertisements
Track Severe Weather on mobile